If you wish to contribute or participate in the discussions about articles you are invited to join SKYbrary as a registered user

 Actions

Saurimo Airport

From SKYbrary Wiki

FNSA
Airport
ICAO: FNSA – IATA: VHC
Summary
Name Saurimo Airport
Region Africa
Territory Angola AO.gif
Location , Lunda Sul
Serving Saurimo
Elevation 1,092.403 m
3,584 ft
3,584 ft1,092.403 m
Coordinates 9° 41' 20.64" S, 20° 25' 54.75" E
Runways
Designator Length Width Surface ROPS
14/32 3400 m11,154.856 ft
45 m147.638 ft
ASP /


METAR
Observation FNSA 171600Z 00000KT CAVOK 24/08 Q1019
Station SAURIMO/HENRIQUE
Date/Time 17 July 2019 16:00:00
Wind direction
Wind speed 00 kts
Lowest cloud amount clouds and visibility OK
Temperature 24°C
Dew point 8°C
Humidity 36%
QNH 1019 hPa
Weather condition n/a